sensor_id;sensor_type;location;lat;lon;timestamp;P1;durP1;ratioP1;P2;durP2;ratioP2
13085;SDS011;6609;49.882;8.664;2023-04-20T00:01:11;6.03;;;3.57;;
13085;SDS011;6609;49.882;8.664;2023-04-20T00:03:38;9.70;;;3.13;;
13085;SDS011;6609;49.882;8.664;2023-04-20T00:06:05;12.83;;;4.07;;
13085;SDS011;6609;49.882;8.664;2023-04-20T00:08:33;9.13;;;3.10;;
13085;SDS011;6609;49.882;8.664;2023-04-20T00:11:00;7.30;;;3.37;;
13085;SDS011;6609;49.882;8.664;2023-04-20T00:13:26;8.27;;;3.20;;
13085;SDS011;6609;49.882;8.664;2023-04-20T00:15:53;8.33;;;3.67;;
13085;SDS011;6609;49.882;8.664;2023-04-20T00:18:20;6.60;;;3.50;;
13085;SDS011;6609;49.882;8.664;2023-04-20T00:20:47;12.23;;;4.80;;
13085;SDS011;6609;49.882;8.664;2023-04-20T00:23:14;7.83;;;3.93;;
13085;SDS011;6609;49.882;8.664;2023-04-20T00:25:42;8.77;;;3.67;;
13085;SDS011;6609;49.882;8.664;2023-04-20T00:28:09;12.83;;;4.30;;
13085;SDS011;6609;49.882;8.664;2023-04-20T00:30:36;9.23;;;4.47;;
13085;SDS011;6609;49.882;8.664;2023-04-20T00:33:03;7.63;;;3.47;;
13085;SDS011;6609;49.882;8.664;2023-04-20T00:35:30;10.00;;;3.50;;
13085;SDS011;6609;49.882;8.664;2023-04-20T00:37:57;7.70;;;3.73;;
13085;SDS011;6609;49.882;8.664;2023-04-20T00:40:24;6.20;;;3.80;;
13085;SDS011;6609;49.882;8.664;2023-04-20T00:42:52;10.70;;;4.33;;
13085;SDS011;6609;49.882;8.664;2023-04-20T00:45:19;10.50;;;4.07;;
13085;SDS011;6609;49.882;8.664;2023-04-20T00:47:46;9.20;;;3.93;;
13085;SDS011;6609;49.882;8.664;2023-04-20T00:50:14;9.87;;;3.90;;
13085;SDS011;6609;49.882;8.664;2023-04-20T00:52:40;12.17;;;4.03;;
13085;SDS011;6609;49.882;8.664;2023-04-20T00:55:08;10.97;;;4.60;;
13085;SDS011;6609;49.882;8.664;2023-04-20T00:57:35;5.83;;;3.33;;
13085;SDS011;6609;49.882;8.664;2023-04-20T01:00:04;6.43;;;3.30;;
13085;SDS011;6609;49.882;8.664;2023-04-20T01:02:32;7.30;;;3.60;;
13085;SDS011;6609;49.882;8.664;2023-04-20T01:05:00;12.27;;;4.67;;
13085;SDS011;6609;49.882;8.664;2023-04-20T01:07:28;13.90;;;4.00;;
13085;SDS011;6609;49.882;8.664;2023-04-20T01:09:54;14.03;;;4.40;;
13085;SDS011;6609;49.882;8.664;2023-04-20T01:12:21;8.10;;;3.97;;
13085;SDS011;6609;49.882;8.664;2023-04-20T01:14:48;10.03;;;4.10;;
13085;SDS011;6609;49.882;8.664;2023-04-20T01:17:17;9.70;;;3.87;;
13085;SDS011;6609;49.882;8.664;2023-04-20T01:19:44;9.23;;;4.07;;
13085;SDS011;6609;49.882;8.664;2023-04-20T01:22:14;8.13;;;4.10;;
13085;SDS011;6609;49.882;8.664;2023-04-20T01:24:42;11.77;;;4.73;;
13085;SDS011;6609;49.882;8.664;2023-04-20T01:27:09;12.67;;;3.90;;
13085;SDS011;6609;49.882;8.664;2023-04-20T01:29:37;9.37;;;4.40;;
13085;SDS011;6609;49.882;8.664;2023-04-20T01:32:04;12.23;;;4.10;;
13085;SDS011;6609;49.882;8.664;2023-04-20T01:34:31;6.03;;;3.30;;
13085;SDS011;6609;49.882;8.664;2023-04-20T01:36:58;14.53;;;4.47;;
13085;SDS011;6609;49.882;8.664;2023-04-20T01:39:27;15.80;;;4.73;;
13085;SDS011;6609;49.882;8.664;2023-04-20T01:41:55;13.60;;;5.23;;
13085;SDS011;6609;49.882;8.664;2023-04-20T01:44:22;11.80;;;4.07;;
13085;SDS011;6609;49.882;8.664;2023-04-20T01:46:49;12.67;;;5.03;;
13085;SDS011;6609;49.882;8.664;2023-04-20T01:49:15;9.03;;;4.07;;
13085;SDS011;6609;49.882;8.664;2023-04-20T01:51:42;8.83;;;3.93;;
13085;SDS011;6609;49.882;8.664;2023-04-20T01:54:09;11.50;;;4.27;;
13085;SDS011;6609;49.882;8.664;2023-04-20T01:56:37;8.83;;;3.77;;
13085;SDS011;6609;49.882;8.664;2023-04-20T01:59:03;13.13;;;4.43;;
13085;SDS011;6609;49.882;8.664;2023-04-20T02:01:30;11.30;;;4.90;;
13085;SDS011;6609;49.882;8.664;2023-04-20T02:03:58;11.33;;;4.70;;
13085;SDS011;6609;49.882;8.664;2023-04-20T02:06:25;9.30;;;4.03;;
13085;SDS011;6609;49.882;8.664;2023-04-20T02:08:52;10.97;;;4.30;;
13085;SDS011;6609;49.882;8.664;2023-04-20T02:11:19;10.73;;;4.23;;
13085;SDS011;6609;49.882;8.664;2023-04-20T02:13:47;10.67;;;4.20;;
13085;SDS011;6609;49.882;8.664;2023-04-20T02:16:14;13.27;;;3.83;;
13085;SDS011;6609;49.882;8.664;2023-04-20T02:18:43;9.03;;;3.90;;
13085;SDS011;6609;49.882;8.664;2023-04-20T02:21:11;12.17;;;4.53;;
13085;SDS011;6609;49.882;8.664;2023-04-20T02:23:38;13.30;;;4.57;;
13085;SDS011;6609;49.882;8.664;2023-04-20T02:26:04;12.23;;;4.17;;
13085;SDS011;6609;49.882;8.664;2023-04-20T02:28:31;10.97;;;4.37;;
13085;SDS011;6609;49.882;8.664;2023-04-20T02:30:59;12.70;;;4.60;;
13085;SDS011;6609;49.882;8.664;2023-04-20T02:33:26;8.87;;;3.57;;
13085;SDS011;6609;49.882;8.664;2023-04-20T02:35:53;11.70;;;4.67;;
13085;SDS011;6609;49.882;8.664;2023-04-20T02:38:20;10.60;;;4.30;;
13085;SDS011;6609;49.882;8.664;2023-04-20T02:40:48;9.30;;;3.70;;
13085;SDS011;6609;49.882;8.664;2023-04-20T02:43:15;10.00;;;4.60;;
13085;SDS011;6609;49.882;8.664;2023-04-20T02:45:41;11.73;;;3.83;;
13085;SDS011;6609;49.882;8.664;2023-04-20T02:48:09;11.60;;;4.63;;
13085;SDS011;6609;49.882;8.664;2023-04-20T02:50:37;9.07;;;3.93;;
13085;SDS011;6609;49.882;8.664;2023-04-20T02:53:04;13.20;;;5.07;;
13085;SDS011;6609;49.882;8.664;2023-04-20T02:55:31;9.63;;;4.27;;
13085;SDS011;6609;49.882;8.664;2023-04-20T02:57:58;11.10;;;4.23;;
13085;SDS011;6609;49.882;8.664;2023-04-20T03:00:25;10.00;;;3.80;;
13085;SDS011;6609;49.882;8.664;2023-04-20T03:02:51;11.70;;;4.50;;
13085;SDS011;6609;49.882;8.664;2023-04-20T03:05:19;10.13;;;4.43;;
13085;SDS011;6609;49.882;8.664;2023-04-20T03:07:47;20.33;;;4.57;;
13085;SDS011;6609;49.882;8.664;2023-04-20T03:10:14;13.57;;;4.97;;
13085;SDS011;6609;49.882;8.664;2023-04-20T03:12:40;12.30;;;4.60;;
13085;SDS011;6609;49.882;8.664;2023-04-20T03:15:08;11.47;;;4.27;;
13085;SDS011;6609;49.882;8.664;2023-04-20T03:17:35;13.13;;;4.73;;
13085;SDS011;6609;49.882;8.664;2023-04-20T03:20:02;8.57;;;4.07;;
13085;SDS011;6609;49.882;8.664;2023-04-20T03:22:31;11.73;;;4.73;;
13085;SDS011;6609;49.882;8.664;2023-04-20T03:24:58;9.33;;;3.80;;
13085;SDS011;6609;49.882;8.664;2023-04-20T03:27:25;9.17;;;3.73;;
13085;SDS011;6609;49.882;8.664;2023-04-20T03:29:52;8.37;;;3.93;;
13085;SDS011;6609;49.882;8.664;2023-04-20T03:32:19;6.27;;;3.67;;
13085;SDS011;6609;49.882;8.664;2023-04-20T03:34:46;12.50;;;5.03;;
13085;SDS011;6609;49.882;8.664;2023-04-20T03:37:13;13.90;;;5.27;;
13085;SDS011;6609;49.882;8.664;2023-04-20T03:39:41;9.10;;;4.33;;
13085;SDS011;6609;49.882;8.664;2023-04-20T03:42:08;13.03;;;5.13;;
13085;SDS011;6609;49.882;8.664;2023-04-20T03:44:35;11.90;;;4.47;;
13085;SDS011;6609;49.882;8.664;2023-04-20T03:47:02;7.70;;;4.00;;
13085;SDS011;6609;49.882;8.664;2023-04-20T03:49:29;10.37;;;4.40;;
13085;SDS011;6609;49.882;8.664;2023-04-20T03:51:55;8.20;;;4.13;;
13085;SDS011;6609;49.882;8.664;2023-04-20T03:54:22;8.93;;;4.40;;
13085;SDS011;6609;49.882;8.664;2023-04-20T03:56:50;13.07;;;4.90;;
13085;SDS011;6609;49.882;8.664;2023-04-20T03:59:17;12.87;;;5.20;;
13085;SDS011;6609;49.882;8.664;2023-04-20T04:01:44;10.33;;;4.67;;
13085;SDS011;6609;49.882;8.664;2023-04-20T04:04:11;13.10;;;5.33;;
13085;SDS011;6609;49.882;8.664;2023-04-20T04:06:38;8.83;;;5.17;;
13085;SDS011;6609;49.882;8.664;2023-04-20T04:09:05;8.03;;;4.70;;
13085;SDS011;6609;49.882;8.664;2023-04-20T04:11:32;10.10;;;4.90;;
13085;SDS011;6609;49.882;8.664;2023-04-20T04:14:01;10.77;;;4.97;;
13085;SDS011;6609;49.882;8.664;2023-04-20T04:16:29;6.63;;;4.20;;
13085;SDS011;6609;49.882;8.664;2023-04-20T04:18:55;9.47;;;4.90;;
13085;SDS011;6609;49.882;8.664;2023-04-20T04:21:22;10.83;;;4.87;;
13085;SDS011;6609;49.882;8.664;2023-04-20T04:23:49;10.20;;;5.30;;
13085;SDS011;6609;49.882;8.664;2023-04-20T04:26:16;8.57;;;4.83;;
13085;SDS011;6609;49.882;8.664;2023-04-20T04:28:45;10.33;;;5.07;;
13085;SDS011;6609;49.882;8.664;2023-04-20T04:31:14;10.90;;;5.10;;
13085;SDS011;6609;49.882;8.664;2023-04-20T04:33:43;10.03;;;4.63;;
13085;SDS011;6609;49.882;8.664;2023-04-20T04:36:10;12.77;;;5.53;;
13085;SDS011;6609;49.882;8.664;2023-04-20T04:38:39;14.23;;;5.37;;
13085;SDS011;6609;49.882;8.664;2023-04-20T04:41:06;12.27;;;5.57;;
13085;SDS011;6609;49.882;8.664;2023-04-20T04:43:33;11.60;;;4.87;;
13085;SDS011;6609;49.882;8.664;2023-04-20T04:46:04;13.77;;;5.10;;
13085;SDS011;6609;49.882;8.664;2023-04-20T04:48:34;13.53;;;4.70;;
13085;SDS011;6609;49.882;8.664;2023-04-20T04:51:01;12.77;;;5.13;;
13085;SDS011;6609;49.882;8.664;2023-04-20T04:53:28;9.20;;;5.30;;
13085;SDS011;6609;49.882;8.664;2023-04-20T04:55:55;11.00;;;5.37;;
13085;SDS011;6609;49.882;8.664;2023-04-20T04:58:22;14.13;;;4.87;;
13085;SDS011;6609;49.882;8.664;2023-04-20T05:00:49;12.07;;;4.77;;
13085;SDS011;6609;49.882;8.664;2023-04-20T05:03:16;12.03;;;5.43;;
13085;SDS011;6609;49.882;8.664;2023-04-20T05:05:44;11.10;;;5.00;;
13085;SDS011;6609;49.882;8.664;2023-04-20T05:08:11;14.40;;;5.60;;
13085;SDS011;6609;49.882;8.664;2023-04-20T05:10:37;12.80;;;5.17;;
13085;SDS011;6609;49.882;8.664;2023-04-20T05:13:04;14.37;;;5.47;;
13085;SDS011;6609;49.882;8.664;2023-04-20T05:15:31;10.50;;;4.83;;
13085;SDS011;6609;49.882;8.664;2023-04-20T05:17:58;11.47;;;5.50;;
13085;SDS011;6609;49.882;8.664;2023-04-20T05:20:26;11.90;;;4.90;;
13085;SDS011;6609;49.882;8.664;2023-04-20T05:22:54;8.53;;;4.53;;
13085;SDS011;6609;49.882;8.664;2023-04-20T05:25:21;12.03;;;5.63;;
13085;SDS011;6609;49.882;8.664;2023-04-20T05:27:48;13.40;;;5.07;;
13085;SDS011;6609;49.882;8.664;2023-04-20T05:30:15;13.47;;;5.90;;
13085;SDS011;6609;49.882;8.664;2023-04-20T05:32:42;16.30;;;6.40;;
13085;SDS011;6609;49.882;8.664;2023-04-20T05:35:09;12.97;;;6.10;;
13085;SDS011;6609;49.882;8.664;2023-04-20T05:37:36;17.03;;;6.07;;
13085;SDS011;6609;49.882;8.664;2023-04-20T05:40:05;14.83;;;5.83;;
13085;SDS011;6609;49.882;8.664;2023-04-20T05:42:33;10.33;;;5.00;;
13085;SDS011;6609;49.882;8.664;2023-04-20T05:45:00;11.50;;;5.60;;
13085;SDS011;6609;49.882;8.664;2023-04-20T05:47:27;11.23;;;5.23;;
13085;SDS011;6609;49.882;8.664;2023-04-20T05:49:53;11.17;;;5.40;;
13085;SDS011;6609;49.882;8.664;2023-04-20T05:52:20;12.53;;;5.50;;
13085;SDS011;6609;49.882;8.664;2023-04-20T05:54:47;10.77;;;5.87;;
13085;SDS011;6609;49.882;8.664;2023-04-20T05:57:15;10.40;;;5.33;;
13085;SDS011;6609;49.882;8.664;2023-04-20T05:59:42;8.97;;;4.93;;
13085;SDS011;6609;49.882;8.664;2023-04-20T06:02:09;11.17;;;5.70;;
13085;SDS011;6609;49.882;8.664;2023-04-20T06:04:36;8.63;;;5.40;;
13085;SDS011;6609;49.882;8.664;2023-04-20T06:07:03;13.53;;;6.00;;
13085;SDS011;6609;49.882;8.664;2023-04-20T06:09:30;13.90;;;5.90;;
13085;SDS011;6609;49.882;8.664;2023-04-20T06:11:57;10.60;;;5.53;;
13085;SDS011;6609;49.882;8.664;2023-04-20T06:14:26;13.33;;;5.60;;
13085;SDS011;6609;49.882;8.664;2023-04-20T06:16:52;13.53;;;5.73;;
13085;SDS011;6609;49.882;8.664;2023-04-20T06:19:19;12.23;;;5.50;;
13085;SDS011;6609;49.882;8.664;2023-04-20T06:21:46;11.37;;;4.93;;
13085;SDS011;6609;49.882;8.664;2023-04-20T06:24:13;14.37;;;5.50;;
13085;SDS011;6609;49.882;8.664;2023-04-20T06:26:40;9.47;;;4.83;;
13085;SDS011;6609;49.882;8.664;2023-04-20T06:29:07;13.73;;;5.73;;
13085;SDS011;6609;49.882;8.664;2023-04-20T06:31:35;13.57;;;5.73;;
13085;SDS011;6609;49.882;8.664;2023-04-20T06:34:02;12.43;;;5.53;;
13085;SDS011;6609;49.882;8.664;2023-04-20T06:36:29;14.30;;;5.50;;
13085;SDS011;6609;49.882;8.664;2023-04-20T06:38:56;14.57;;;5.83;;
13085;SDS011;6609;49.882;8.664;2023-04-20T06:41:23;9.73;;;5.50;;
13085;SDS011;6609;49.882;8.664;2023-04-20T06:43:50;12.07;;;5.40;;
13085;SDS011;6609;49.882;8.664;2023-04-20T06:46:17;12.50;;;6.30;;
13085;SDS011;6609;49.882;8.664;2023-04-20T06:48:46;9.83;;;5.10;;
13085;SDS011;6609;49.882;8.664;2023-04-20T06:51:12;14.03;;;5.90;;
13085;SDS011;6609;49.882;8.664;2023-04-20T06:53:39;9.80;;;5.73;;
13085;SDS011;6609;49.882;8.664;2023-04-20T06:56:06;12.47;;;5.47;;
13085;SDS011;6609;49.882;8.664;2023-04-20T06:58:33;10.00;;;5.30;;
13085;SDS011;6609;49.882;8.664;2023-04-20T07:01:00;10.57;;;5.47;;
13085;SDS011;6609;49.882;8.664;2023-04-20T07:03:27;9.43;;;4.83;;
13085;SDS011;6609;49.882;8.664;2023-04-20T07:05:55;13.20;;;5.30;;
13085;SDS011;6609;49.882;8.664;2023-04-20T07:08:22;9.17;;;4.63;;
13085;SDS011;6609;49.882;8.664;2023-04-20T07:10:49;11.47;;;5.33;;
13085;SDS011;6609;49.882;8.664;2023-04-20T07:13:15;8.00;;;4.80;;
13085;SDS011;6609;49.882;8.664;2023-04-20T07:15:43;9.37;;;5.00;;
13085;SDS011;6609;49.882;8.664;2023-04-20T07:18:10;11.30;;;5.13;;
13085;SDS011;6609;49.882;8.664;2023-04-20T07:20:37;8.70;;;4.77;;
13085;SDS011;6609;49.882;8.664;2023-04-20T07:23:05;10.83;;;5.57;;
13085;SDS011;6609;49.882;8.664;2023-04-20T07:25:32;7.47;;;4.30;;
13085;SDS011;6609;49.882;8.664;2023-04-20T07:27:59;9.27;;;4.67;;
13085;SDS011;6609;49.882;8.664;2023-04-20T07:30:26;9.00;;;5.30;;
13085;SDS011;6609;49.882;8.664;2023-04-20T07:32:55;9.43;;;5.67;;
13085;SDS011;6609;49.882;8.664;2023-04-20T07:35:22;8.53;;;5.00;;
13085;SDS011;6609;49.882;8.664;2023-04-20T07:37:49;7.37;;;4.80;;
13085;SDS011;6609;49.882;8.664;2023-04-20T07:40:17;6.10;;;4.20;;
13085;SDS011;6609;49.882;8.664;2023-04-20T07:42:44;7.80;;;4.90;;
13085;SDS011;6609;49.882;8.664;2023-04-20T07:45:11;5.97;;;4.77;;
13085;SDS011;6609;49.882;8.664;2023-04-20T07:47:38;6.20;;;4.40;;
13085;SDS011;6609;49.882;8.664;2023-04-20T07:50:08;4.67;;;3.83;;
13085;SDS011;6609;49.882;8.664;2023-04-20T07:52:35;5.30;;;4.03;;
13085;SDS011;6609;49.882;8.664;2023-04-20T07:55:02;9.87;;;4.73;;
13085;SDS011;6609;49.882;8.664;2023-04-20T07:57:31;8.50;;;4.67;;
13085;SDS011;6609;49.882;8.664;2023-04-20T07:59:58;5.20;;;4.17;;
13085;SDS011;6609;49.882;8.664;2023-04-20T08:02:25;5.70;;;4.43;;
13085;SDS011;6609;49.882;8.664;2023-04-20T08:04:52;9.80;;;4.47;;
13085;SDS011;6609;49.882;8.664;2023-04-20T08:07:19;6.97;;;4.50;;
13085;SDS011;6609;49.882;8.664;2023-04-20T08:09:45;8.10;;;4.23;;
13085;SDS011;6609;49.882;8.664;2023-04-20T08:12:12;9.63;;;4.50;;
13085;SDS011;6609;49.882;8.664;2023-04-20T08:14:41;6.33;;;4.23;;
13085;SDS011;6609;49.882;8.664;2023-04-20T08:17:07;6.13;;;4.43;;
13085;SDS011;6609;49.882;8.664;2023-04-20T08:19:34;9.23;;;5.17;;
13085;SDS011;6609;49.882;8.664;2023-04-20T08:22:01;8.33;;;4.77;;
13085;SDS011;6609;49.882;8.664;2023-04-20T08:24:29;7.47;;;4.13;;
13085;SDS011;6609;49.882;8.664;2023-04-20T08:26:56;7.00;;;4.43;;
13085;SDS011;6609;49.882;8.664;2023-04-20T08:29:24;9.77;;;5.00;;
13085;SDS011;6609;49.882;8.664;2023-04-20T08:31:52;8.63;;;4.27;;
13085;SDS011;6609;49.882;8.664;2023-04-20T08:34:19;5.57;;;4.20;;
13085;SDS011;6609;49.882;8.664;2023-04-20T08:36:46;6.73;;;4.57;;
13085;SDS011;6609;49.882;8.664;2023-04-20T08:39:17;6.20;;;4.60;;
13085;SDS011;6609;49.882;8.664;2023-04-20T08:41:44;7.43;;;5.07;;
13085;SDS011;6609;49.882;8.664;2023-04-20T08:44:12;7.87;;;5.10;;
13085;SDS011;6609;49.882;8.664;2023-04-20T08:46:39;6.03;;;4.10;;
13085;SDS011;6609;49.882;8.664;2023-04-20T08:49:12;11.57;;;4.80;;
13085;SDS011;6609;49.882;8.664;2023-04-20T08:51:41;7.80;;;4.77;;
13085;SDS011;6609;49.882;8.664;2023-04-20T08:54:08;11.20;;;4.30;;
13085;SDS011;6609;49.882;8.664;2023-04-20T08:56:37;6.03;;;4.43;;
13085;SDS011;6609;49.882;8.664;2023-04-20T08:59:05;11.33;;;5.20;;
13085;SDS011;6609;49.882;8.664;2023-04-20T09:01:34;11.30;;;5.77;;
13085;SDS011;6609;49.882;8.664;2023-04-20T09:04:02;8.63;;;5.00;;
13085;SDS011;6609;49.882;8.664;2023-04-20T09:06:42;9.63;;;4.50;;
13085;SDS011;6609;49.882;8.664;2023-04-20T09:09:09;10.63;;;4.87;;
13085;SDS011;6609;49.882;8.664;2023-04-20T09:11:36;7.03;;;4.80;;
13085;SDS011;6609;49.882;8.664;2023-04-20T09:14:04;9.30;;;5.27;;
13085;SDS011;6609;49.882;8.664;2023-04-20T09:16:34;10.67;;;4.97;;
13085;SDS011;6609;49.882;8.664;2023-04-20T09:19:01;7.73;;;4.17;;
13085;SDS011;6609;49.882;8.664;2023-04-20T09:21:31;8.43;;;4.67;;
13085;SDS011;6609;49.882;8.664;2023-04-20T09:23:58;9.83;;;5.30;;
13085;SDS011;6609;49.882;8.664;2023-04-20T09:26:25;7.03;;;4.83;;
13085;SDS011;6609;49.882;8.664;2023-04-20T09:28:52;5.77;;;4.10;;
13085;SDS011;6609;49.882;8.664;2023-04-20T09:31:20;9.00;;;4.70;;
13085;SDS011;6609;49.882;8.664;2023-04-20T09:33:59;7.87;;;4.20;;
13085;SDS011;6609;49.882;8.664;2023-04-20T09:36:35;8.93;;;5.00;;
13085;SDS011;6609;49.882;8.664;2023-04-20T09:39:03;7.20;;;4.40;;
13085;SDS011;6609;49.882;8.664;2023-04-20T09:41:33;8.53;;;4.87;;
13085;SDS011;6609;49.882;8.664;2023-04-20T09:44:00;7.27;;;4.60;;
13085;SDS011;6609;49.882;8.664;2023-04-20T09:46:27;9.73;;;3.97;;
13085;SDS011;6609;49.882;8.664;2023-04-20T09:48:56;9.27;;;4.63;;
13085;SDS011;6609;49.882;8.664;2023-04-20T09:51:24;7.43;;;4.07;;
13085;SDS011;6609;49.882;8.664;2023-04-20T09:53:54;7.30;;;4.10;;
13085;SDS011;6609;49.882;8.664;2023-04-20T09:56:21;6.63;;;4.37;;
13085;SDS011;6609;49.882;8.664;2023-04-20T09:58:48;7.33;;;3.90;;
13085;SDS011;6609;49.882;8.664;2023-04-20T10:01:17;8.23;;;4.47;;
13085;SDS011;6609;49.882;8.664;2023-04-20T10:03:44;8.10;;;4.43;;
13085;SDS011;6609;49.882;8.664;2023-04-20T10:06:18;9.27;;;4.77;;
13085;SDS011;6609;49.882;8.664;2023-04-20T10:08:45;7.90;;;4.03;;
13085;SDS011;6609;49.882;8.664;2023-04-20T10:11:24;8.00;;;4.77;;
13085;SDS011;6609;49.882;8.664;2023-04-20T10:13:55;7.27;;;4.13;;
13085;SDS011;6609;49.882;8.664;2023-04-20T10:16:22;7.63;;;4.10;;
13085;SDS011;6609;49.882;8.664;2023-04-20T10:18:55;6.80;;;4.70;;
13085;SDS011;6609;49.882;8.664;2023-04-20T10:21:23;8.27;;;4.20;;
13085;SDS011;6609;49.882;8.664;2023-04-20T10:23:50;5.77;;;4.13;;
13085;SDS011;6609;49.882;8.664;2023-04-20T10:26:17;7.27;;;3.97;;
13085;SDS011;6609;49.882;8.664;2023-04-20T10:28:46;12.47;;;4.60;;
13085;SDS011;6609;49.882;8.664;2023-04-20T10:31:13;8.07;;;4.30;;
13085;SDS011;6609;49.882;8.664;2023-04-20T10:33:47;6.10;;;3.40;;
13085;SDS011;6609;49.882;8.664;2023-04-20T10:36:20;7.43;;;4.00;;
13085;SDS011;6609;49.882;8.664;2023-04-20T10:38:48;10.90;;;4.23;;
13085;SDS011;6609;49.882;8.664;2023-04-20T10:41:15;7.00;;;4.47;;
13085;SDS011;6609;49.882;8.664;2023-04-20T10:43:42;6.13;;;3.90;;
13085;SDS011;6609;49.882;8.664;2023-04-20T10:46:14;8.87;;;3.77;;
13085;SDS011;6609;49.882;8.664;2023-04-20T10:48:48;6.63;;;4.00;;
13085;SDS011;6609;49.882;8.664;2023-04-20T10:51:15;6.33;;;3.90;;
13085;SDS011;6609;49.882;8.664;2023-04-20T10:53:43;6.47;;;3.70;;
13085;SDS011;6609;49.882;8.664;2023-04-20T10:56:10;7.57;;;4.30;;
13085;SDS011;6609;49.882;8.664;2023-04-20T10:58:37;6.27;;;3.63;;
13085;SDS011;6609;49.882;8.664;2023-04-20T11:01:04;6.87;;;3.83;;
13085;SDS011;6609;49.882;8.664;2023-04-20T11:03:32;7.23;;;4.00;;
13085;SDS011;6609;49.882;8.664;2023-04-20T11:05:59;8.53;;;4.40;;
13085;SDS011;6609;49.882;8.664;2023-04-20T11:08:37;8.43;;;4.40;;
13085;SDS011;6609;49.882;8.664;2023-04-20T11:11:04;10.07;;;4.30;;
13085;SDS011;6609;49.882;8.664;2023-04-20T11:13:31;10.93;;;5.13;;
13085;SDS011;6609;49.882;8.664;2023-04-20T11:15:58;7.93;;;4.50;;
13085;SDS011;6609;49.882;8.664;2023-04-20T11:18:26;6.13;;;3.63;;
13085;SDS011;6609;49.882;8.664;2023-04-20T11:20:55;6.30;;;3.90;;
13085;SDS011;6609;49.882;8.664;2023-04-20T11:23:23;7.00;;;4.20;;
13085;SDS011;6609;49.882;8.664;2023-04-20T11:25:51;6.53;;;4.20;;
13085;SDS011;6609;49.882;8.664;2023-04-20T11:28:19;7.03;;;3.77;;
13085;SDS011;6609;49.882;8.664;2023-04-20T11:30:46;7.30;;;4.30;;
13085;SDS011;6609;49.882;8.664;2023-04-20T11:33:14;7.47;;;4.63;;
13085;SDS011;6609;49.882;8.664;2023-04-20T11:35:41;6.77;;;4.10;;
13085;SDS011;6609;49.882;8.664;2023-04-20T11:38:09;8.37;;;4.27;;
13085;SDS011;6609;49.882;8.664;2023-04-20T11:40:36;6.83;;;4.00;;
13085;SDS011;6609;49.882;8.664;2023-04-20T11:43:04;7.37;;;3.60;;
13085;SDS011;6609;49.882;8.664;2023-04-20T11:45:31;8.07;;;3.67;;
13085;SDS011;6609;49.882;8.664;2023-04-20T11:47:58;4.87;;;3.70;;
13085;SDS011;6609;49.882;8.664;2023-04-20T11:50:26;5.17;;;3.40;;
13085;SDS011;6609;49.882;8.664;2023-04-20T11:52:53;6.40;;;3.93;;
13085;SDS011;6609;49.882;8.664;2023-04-20T11:55:21;5.70;;;3.70;;
13085;SDS011;6609;49.882;8.664;2023-04-20T11:57:48;6.53;;;3.50;;
13085;SDS011;6609;49.882;8.664;2023-04-20T12:00:15;5.03;;;3.37;;
13085;SDS011;6609;49.882;8.664;2023-04-20T12:02:43;5.80;;;3.73;;
13085;SDS011;6609;49.882;8.664;2023-04-20T12:05:10;7.77;;;4.40;;
13085;SDS011;6609;49.882;8.664;2023-04-20T12:07:37;5.97;;;3.73;;
13085;SDS011;6609;49.882;8.664;2023-04-20T12:10:05;6.70;;;3.93;;
13085;SDS011;6609;49.882;8.664;2023-04-20T12:12:34;7.07;;;3.27;;
13085;SDS011;6609;49.882;8.664;2023-04-20T12:15:02;8.03;;;3.97;;
13085;SDS011;6609;49.882;8.664;2023-04-20T12:17:29;4.30;;;2.90;;
13085;SDS011;6609;49.882;8.664;2023-04-20T12:19:56;7.67;;;3.70;;
13085;SDS011;6609;49.882;8.664;2023-04-20T12:22:24;6.90;;;3.70;;
13085;SDS011;6609;49.882;8.664;2023-04-20T12:24:51;7.60;;;3.40;;
13085;SDS011;6609;49.882;8.664;2023-04-20T12:27:18;6.57;;;3.93;;
13085;SDS011;6609;49.882;8.664;2023-04-20T12:29:46;5.63;;;3.40;;
13085;SDS011;6609;49.882;8.664;2023-04-20T12:32:13;6.03;;;3.43;;
13085;SDS011;6609;49.882;8.664;2023-04-20T12:34:40;7.93;;;4.20;;
13085;SDS011;6609;49.882;8.664;2023-04-20T12:37:07;7.03;;;4.10;;
13085;SDS011;6609;49.882;8.664;2023-04-20T12:39:33;4.63;;;3.23;;
13085;SDS011;6609;49.882;8.664;2023-04-20T12:42:00;6.97;;;3.87;;
13085;SDS011;6609;49.882;8.664;2023-04-20T12:44:28;5.33;;;3.20;;
13085;SDS011;6609;49.882;8.664;2023-04-20T12:46:55;6.80;;;3.57;;
13085;SDS011;6609;49.882;8.664;2023-04-20T12:49:22;5.30;;;3.10;;
13085;SDS011;6609;49.882;8.664;2023-04-20T12:51:50;7.80;;;3.33;;
13085;SDS011;6609;49.882;8.664;2023-04-20T12:54:16;6.27;;;3.10;;
13085;SDS011;6609;49.882;8.664;2023-04-20T12:56:43;7.60;;;3.40;;
13085;SDS011;6609;49.882;8.664;2023-04-20T12:59:10;7.93;;;4.30;;
13085;SDS011;6609;49.882;8.664;2023-04-20T13:01:38;10.97;;;3.93;;
13085;SDS011;6609;49.882;8.664;2023-04-20T13:04:06;9.33;;;4.70;;
13085;SDS011;6609;49.882;8.664;2023-04-20T13:06:33;8.57;;;3.80;;
13085;SDS011;6609;49.882;8.664;2023-04-20T13:09:00;9.40;;;4.23;;
13085;SDS011;6609;49.882;8.664;2023-04-20T13:11:28;9.67;;;4.13;;
13085;SDS011;6609;49.882;8.664;2023-04-20T13:13:55;7.87;;;4.53;;
13085;SDS011;6609;49.882;8.664;2023-04-20T13:16:22;6.63;;;3.60;;
13085;SDS011;6609;49.882;8.664;2023-04-20T13:18:49;9.03;;;4.17;;
13085;SDS011;6609;49.882;8.664;2023-04-20T13:21:17;7.20;;;4.40;;
13085;SDS011;6609;49.882;8.664;2023-04-20T13:23:44;7.30;;;4.07;;
13085;SDS011;6609;49.882;8.664;2023-04-20T13:26:11;7.77;;;4.33;;
13085;SDS011;6609;49.882;8.664;2023-04-20T13:28:38;7.50;;;3.90;;
13085;SDS011;6609;49.882;8.664;2023-04-20T13:31:05;10.50;;;3.80;;
13085;SDS011;6609;49.882;8.664;2023-04-20T13:33:31;8.37;;;4.03;;
13085;SDS011;6609;49.882;8.664;2023-04-20T13:35:59;6.87;;;3.47;;
13085;SDS011;6609;49.882;8.664;2023-04-20T13:38:27;6.50;;;3.37;;
13085;SDS011;6609;49.882;8.664;2023-04-20T13:40:53;6.83;;;3.83;;
13085;SDS011;6609;49.882;8.664;2023-04-20T13:43:20;6.30;;;3.27;;
13085;SDS011;6609;49.882;8.664;2023-04-20T13:45:47;4.27;;;3.00;;
13085;SDS011;6609;49.882;8.664;2023-04-20T13:48:14;10.50;;;4.33;;
13085;SDS011;6609;49.882;8.664;2023-04-20T13:50:41;16.10;;;4.37;;
13085;SDS011;6609;49.882;8.664;2023-04-20T13:53:08;12.40;;;4.00;;
13085;SDS011;6609;49.882;8.664;2023-04-20T13:55:36;7.97;;;3.63;;
13085;SDS011;6609;49.882;8.664;2023-04-20T13:58:03;10.70;;;4.27;;
13085;SDS011;6609;49.882;8.664;2023-04-20T14:00:30;10.60;;;3.90;;
13085;SDS011;6609;49.882;8.664;2023-04-20T14:02:57;9.50;;;3.93;;
13085;SDS011;6609;49.882;8.664;2023-04-20T14:05:24;8.57;;;3.73;;
13085;SDS011;6609;49.882;8.664;2023-04-20T14:07:51;11.13;;;4.07;;
13085;SDS011;6609;49.882;8.664;2023-04-20T14:10:18;13.70;;;4.30;;
13085;SDS011;6609;49.882;8.664;2023-04-20T14:12:46;9.53;;;4.07;;
13085;SDS011;6609;49.882;8.664;2023-04-20T14:15:13;15.93;;;4.50;;
13085;SDS011;6609;49.882;8.664;2023-04-20T14:17:40;12.43;;;4.20;;
13085;SDS011;6609;49.882;8.664;2023-04-20T14:20:08;7.83;;;3.63;;
13085;SDS011;6609;49.882;8.664;2023-04-20T14:22:35;9.07;;;3.70;;
13085;SDS011;6609;49.882;8.664;2023-04-20T14:25:02;10.77;;;3.90;;
13085;SDS011;6609;49.882;8.664;2023-04-20T14:27:29;9.20;;;4.13;;
13085;SDS011;6609;49.882;8.664;2023-04-20T14:29:58;9.83;;;4.17;;
13085;SDS011;6609;49.882;8.664;2023-04-20T14:32:25;10.97;;;4.40;;
13085;SDS011;6609;49.882;8.664;2023-04-20T14:34:52;7.23;;;3.70;;
13085;SDS011;6609;49.882;8.664;2023-04-20T14:37:19;11.07;;;4.53;;
13085;SDS011;6609;49.882;8.664;2023-04-20T14:39:48;12.20;;;4.33;;
13085;SDS011;6609;49.882;8.664;2023-04-20T14:42:15;12.10;;;4.40;;
13085;SDS011;6609;49.882;8.664;2023-04-20T14:44:42;8.97;;;3.07;;
13085;SDS011;6609;49.882;8.664;2023-04-20T14:47:13;12.17;;;4.03;;
13085;SDS011;6609;49.882;8.664;2023-04-20T14:49:40;6.97;;;3.13;;
13085;SDS011;6609;49.882;8.664;2023-04-20T14:52:08;10.07;;;4.00;;
13085;SDS011;6609;49.882;8.664;2023-04-20T14:54:35;9.60;;;3.67;;
13085;SDS011;6609;49.882;8.664;2023-04-20T14:57:02;8.90;;;4.00;;